Time;durP1;ratioP1;P1;durP2;ratioP2;P2;SDS_P1;SDS_P2;PMS_P1;PMS_P2;Temp;Humidity;BMP_temperature;BMP_pressure;BME280_temperature;BME280_humidity;BME280_pressure;Samples;Min_cycle;Max_cycle;Signal;HPM_P1;HPM_P2
2022/01/15 00:01:08;;;;;;;51.60;25.07;;;3.50;99.90;;;;;;5113356;28;20286;-55
2022/01/15 00:03:36;;;;;;;44.83;25.13;;;3.50;99.90;;;;;;5112988;28;20610;-56
2022/01/15 00:06:04;;;;;;;51.03;26.03;;;3.60;99.90;;;;;;5112696;28;20295;-56
2022/01/15 00:08:33;;;;;;;52.70;27.73;;;3.60;99.90;;;;;;5112716;28;20269;-55
2022/01/15 00:11:01;;;;;;;55.00;25.87;;;3.60;99.90;;;;;;5128282;27;20200;-55
2022/01/15 00:13:31;;;;;;;58.53;27.27;;;3.60;99.90;;;;;;5133676;27;20203;-55
2022/01/15 00:16:07;;;;;;;47.93;24.60;;;3.50;99.90;;;;;;5133275;27;20233;-55
2022/01/15 00:18:46;;;;;;;50.40;26.50;;;3.50;99.90;;;;;;5132872;27;20224;-56
2022/01/15 00:21:15;;;;;;;48.20;25.10;;;3.60;99.90;;;;;;5132786;27;20237;-55
2022/01/15 00:23:44;;;;;;;52.47;26.90;;;3.60;99.90;;;;;;5132970;27;20207;-54
2022/01/15 00:26:12;;;;;;;51.27;25.63;;;3.60;99.90;;;;;;5132985;27;20674;-55
2022/01/15 00:28:40;;;;;;;49.13;25.27;;;3.60;99.90;;;;;;5131986;27;20644;-55
2022/01/15 00:31:08;;;;;;;56.03;27.00;;;3.60;99.90;;;;;;5114184;27;20254;-55
2022/01/15 00:33:38;;;;;;;50.77;26.43;;;3.60;99.90;;;;;;5093373;28;20206;-55
2022/01/15 00:36:07;;;;;;;44.37;24.70;;;3.50;99.90;;;;;;5101842;28;20249;-55
2022/01/15 00:38:35;;;;;;;50.93;26.57;;;3.60;99.90;;;;;;5091347;28;20228;-55
2022/01/15 00:41:03;;;;;;;50.07;24.50;;;3.60;99.90;;;;;;5091759;28;20670;-56
2022/01/15 00:43:31;;;;;;;57.70;26.33;;;3.60;99.90;;;;;;5102516;28;20207;-57
2022/01/15 00:45:59;;;;;;;53.87;26.43;;;3.60;99.90;;;;;;5111866;28;20648;-56
2022/01/15 00:48:28;;;;;;;45.33;22.87;;;3.60;99.90;;;;;;5123171;27;20287;-55
2022/01/15 00:50:57;;;;;;;41.40;23.67;;;3.60;99.90;;;;;;5132014;27;20203;-55
2022/01/15 00:53:25;;;;;;;42.77;23.57;;;3.60;99.90;;;;;;5124588;27;20928;-55
2022/01/15 00:55:53;;;;;;;38.90;21.80;;;3.60;99.90;;;;;;5111447;27;20207;-55
2022/01/15 00:58:22;;;;;;;36.00;20.97;;;3.60;99.90;;;;;;5111304;28;20211;-55
2022/01/15 01:00:50;;;;;;;36.07;21.37;;;3.60;99.90;;;;;;5092880;28;20641;-56
2022/01/15 01:03:18;;;;;;;35.80;20.60;;;3.60;99.90;;;;;;5111013;28;20199;-55
2022/01/15 01:05:46;;;;;;;35.33;20.03;;;3.60;99.90;;;;;;5112166;28;20619;-55
2022/01/15 01:08:16;;;;;;;34.90;20.40;;;3.60;99.90;;;;;;5110751;28;20204;-56
2022/01/15 01:10:55;;;;;;;33.83;19.73;;;3.60;99.90;;;;;;5125126;27;20252;-56
2022/01/15 01:20:00;;;;;;;31.20;18.87;;;3.60;99.90;;;;;;5131246;27;20273;-55
2022/01/15 01:24:47;;;;;;;38.00;20.20;;;3.60;99.90;;;;;;5131548;27;20199;-56
2022/01/15 01:27:21;;;;;;;41.50;22.67;;;3.60;99.90;;;;;;5114621;28;20214;-55
2022/01/15 01:30:05;;;;;;;36.00;20.23;;;3.60;99.90;;;;;;5110414;28;20720;-55
2022/01/15 01:32:45;;;;;;;35.57;19.10;;;3.70;99.90;;;;;;5111051;28;20703;-57
2022/01/15 01:35:18;;;;;;;29.33;17.53;;;3.60;99.90;;;;;;5111311;28;20204;-56
2022/01/15 01:37:50;;;;;;;29.30;17.13;;;3.60;99.90;;;;;;5111166;28;20185;-55
2022/01/15 01:40:24;;;;;;;27.57;17.23;;;3.70;99.90;;;;;;5111301;28;20220;-56
2022/01/15 01:43:06;;;;;;;30.70;17.57;;;3.70;99.90;;;;;;5110773;28;20195;-57
2022/01/15 01:45:34;;;;;;;30.47;17.57;;;3.70;99.90;;;;;;5111863;28;20244;-55
2022/01/15 01:48:02;;;;;;;31.10;17.67;;;3.70;99.90;;;;;;5113845;28;20213;-55
2022/01/15 01:50:31;;;;;;;30.70;17.23;;;3.60;99.90;;;;;;5110503;28;20225;-55
2022/01/15 01:53:00;;;;;;;27.50;17.07;;;3.60;99.90;;;;;;5119038;28;20245;-55
2022/01/15 01:55:30;;;;;;;28.03;15.93;;;3.60;99.90;;;;;;5131523;28;20207;-55
2022/01/15 01:57:59;;;;;;;28.20;17.00;;;3.60;99.90;;;;;;5121967;28;20265;-57
2022/01/15 02:00:29;;;;;;;29.83;17.03;;;3.60;99.90;;;;;;5110556;28;20227;-54
2022/01/15 02:02:58;;;;;;;28.43;16.87;;;3.60;99.90;;;;;;5111262;28;20198;-56
2022/01/15 02:05:27;;;;;;;25.70;16.10;;;3.60;99.90;;;;;;5111204;28;20691;-55
2022/01/15 02:07:55;;;;;;;31.23;17.97;;;3.50;99.90;;;;;;5110809;28;20207;-56
2022/01/15 02:10:23;;;;;;;30.50;16.90;;;3.60;99.90;;;;;;5120669;28;20624;-55
2022/01/15 02:12:55;;;;;;;27.37;16.60;;;3.50;99.90;;;;;;5131571;27;20226;-55
2022/01/15 02:15:24;;;;;;;31.87;18.20;;;3.50;99.90;;;;;;5135493;27;20206;-55
2022/01/15 02:17:53;;;;;;;26.97;16.57;;;3.60;99.90;;;;;;5135471;27;20236;-56
2022/01/15 02:20:48;;;;;;;27.47;16.60;;;3.50;99.90;;;;;;5135639;27;20227;-55
2022/01/15 02:26:13;;;;;;;26.23;15.93;;;3.60;99.90;;;;;;5060273;28;20253;-55
2022/01/15 02:28:44;;;;;;;25.33;16.23;;;3.60;99.90;;;;;;5114869;28;20288;-55
2022/01/15 02:31:15;;;;;;;28.87;16.87;;;3.60;99.90;;;;;;5114544;28;20264;-55
2022/01/15 02:33:45;;;;;;;26.43;16.33;;;3.60;99.90;;;;;;5114578;28;20289;-55
2022/01/15 02:36:17;;;;;;;23.93;15.07;;;3.60;99.90;;;;;;5114213;28;20288;-55
2022/01/15 02:38:45;;;;;;;27.60;16.67;;;3.60;99.90;;;;;;5114008;28;20667;-55
2022/01/15 02:41:14;;;;;;;24.83;15.53;;;3.60;99.90;;;;;;5115708;28;20273;-55
2022/01/15 02:43:42;;;;;;;28.80;16.33;;;3.50;99.90;;;;;;5115479;28;20699;-54
2022/01/15 02:46:23;;;;;;;28.43;16.00;;;3.50;99.90;;;;;;5115804;28;20679;-56
2022/01/15 02:48:53;;;;;;;28.27;16.27;;;3.50;99.90;;;;;;5129493;27;20227;-55
2022/01/15 02:51:25;;;;;;;27.33;16.23;;;3.50;99.90;;;;;;5136269;27;20256;-55
2022/01/15 02:53:55;;;;;;;29.80;16.50;;;3.50;99.90;;;;;;5119857;27;20208;-56
2022/01/15 02:56:24;;;;;;;33.10;17.87;;;3.50;99.90;;;;;;5114655;28;20208;-57
2022/01/15 02:58:53;;;;;;;27.33;15.80;;;3.50;99.90;;;;;;5110493;28;20640;-56
2022/01/15 03:01:22;;;;;;;27.47;15.70;;;3.50;99.90;;;;;;5093813;28;20218;-55
2022/01/15 03:03:50;;;;;;;30.27;16.83;;;3.50;99.90;;;;;;5093669;28;20232;-55
2022/01/15 03:06:20;;;;;;;29.03;17.63;;;3.50;99.90;;;;;;5093618;28;20211;-56
2022/01/15 03:08:52;;;;;;;30.57;17.63;;;3.60;99.90;;;;;;5092626;28;20225;-55
2022/01/15 03:11:21;;;;;;;36.27;17.93;;;3.60;99.90;;;;;;5130077;27;20199;-55
2022/01/15 03:13:49;;;;;;;27.57;17.00;;;3.60;99.90;;;;;;5119739;27;20281;-55
2022/01/15 03:16:20;;;;;;;29.07;17.43;;;3.60;99.90;;;;;;5114066;28;20204;-56
2022/01/15 03:18:49;;;;;;;29.60;16.70;;;3.70;99.90;;;;;;5113488;28;20234;-55
2022/01/15 03:21:17;;;;;;;26.10;16.10;;;3.60;99.90;;;;;;5113655;28;20208;-55
2022/01/15 03:23:46;;;;;;;30.17;16.97;;;3.60;99.90;;;;;;5115359;27;20208;-55
2022/01/15 03:26:15;;;;;;;27.27;15.50;;;3.60;99.90;;;;;;5134186;27;20252;-54
2022/01/15 03:28:44;;;;;;;27.13;16.80;;;3.70;99.90;;;;;;5133428;27;20227;-56
2022/01/15 03:31:12;;;;;;;29.07;17.23;;;3.70;99.90;;;;;;5134215;27;20607;-55
2022/01/15 03:33:40;;;;;;;29.53;17.73;;;3.70;99.90;;;;;;5113740;28;20229;-55
2022/01/15 03:36:09;;;;;;;27.77;16.20;;;3.70;99.90;;;;;;5113168;28;20259;-55
2022/01/15 03:38:37;;;;;;;25.70;16.07;;;3.70;99.90;;;;;;5112596;28;20251;-56
2022/01/15 03:41:06;;;;;;;26.47;15.97;;;3.70;99.90;;;;;;5123049;27;20207;-55
2022/01/15 03:43:35;;;;;;;29.30;17.23;;;3.60;99.90;;;;;;5117637;27;20210;-54
2022/01/15 03:46:03;;;;;;;27.37;17.23;;;3.70;99.90;;;;;;5092859;28;20212;-55
2022/01/15 03:48:32;;;;;;;26.43;16.20;;;3.70;99.90;;;;;;5116462;27;20199;-55
2022/01/15 03:51:00;;;;;;;28.10;15.27;;;3.70;99.90;;;;;;5119763;27;20203;-54
2022/01/15 03:53:28;;;;;;;30.17;16.53;;;3.70;99.90;;;;;;5124445;27;20251;-54
2022/01/15 03:55:56;;;;;;;24.50;15.53;;;3.70;99.90;;;;;;5133884;27;20211;-55
2022/01/15 03:58:24;;;;;;;28.80;16.23;;;3.70;99.90;;;;;;5133134;27;20207;-55
2022/01/15 04:00:54;;;;;;;25.70;15.03;;;3.70;99.90;;;;;;5113548;27;20201;-55
2022/01/15 04:03:22;;;;;;;27.33;15.90;;;3.60;99.90;;;;;;5112954;28;20200;-55
2022/01/15 04:05:50;;;;;;;28.90;16.37;;;3.70;99.90;;;;;;5113026;28;20204;-57
2022/01/15 04:08:18;;;;;;;27.53;15.40;;;3.70;99.90;;;;;;5112584;28;20209;-54
2022/01/15 04:10:46;;;;;;;32.60;17.17;;;3.70;99.90;;;;;;5126432;27;20199;-56
2022/01/15 04:13:15;;;;;;;32.17;17.27;;;3.80;99.90;;;;;;5123359;27;20277;-56
2022/01/15 04:15:43;;;;;;;28.93;17.60;;;3.80;99.90;;;;;;5106105;28;20246;-56
2022/01/15 04:18:13;;;;;;;26.23;15.73;;;3.70;99.90;;;;;;5113092;28;20254;-55
2022/01/15 04:20:41;;;;;;;30.60;17.17;;;3.70;99.90;;;;;;5112612;28;20249;-55
2022/01/15 04:23:09;;;;;;;26.23;15.77;;;3.70;99.90;;;;;;5111764;28;20216;-56
2022/01/15 04:25:37;;;;;;;26.20;15.97;;;3.70;99.90;;;;;;5116353;27;20228;-55
2022/01/15 04:28:09;;;;;;;28.17;16.23;;;3.70;99.90;;;;;;5132320;27;20203;-55
2022/01/15 04:30:40;;;;;;;29.03;16.87;;;3.60;99.90;;;;;;5132811;27;20282;-56
2022/01/15 04:33:09;;;;;;;35.40;18.10;;;3.60;99.90;;;;;;5115975;27;20212;-56
2022/01/15 04:35:39;;;;;;;29.70;17.97;;;3.70;99.90;;;;;;5111989;28;20231;-55
2022/01/15 04:38:11;;;;;;;30.67;16.73;;;3.70;99.90;;;;;;5111595;28;20229;-54
2022/01/15 04:40:39;;;;;;;26.30;16.43;;;3.70;99.90;;;;;;5112356;28;20249;-55
2022/01/15 04:43:07;;;;;;;23.17;14.73;;;3.70;99.90;;;;;;5111639;28;20675;-56
2022/01/15 04:45:35;;;;;;;23.23;14.60;;;3.70;99.90;;;;;;5111964;28;20700;-55
2022/01/15 04:48:04;;;;;;;29.83;16.83;;;3.70;99.90;;;;;;5106978;27;20200;-55
2022/01/15 04:50:32;;;;;;;32.30;17.93;;;3.80;99.90;;;;;;5116735;27;20223;-55
2022/01/15 04:53:01;;;;;;;28.83;17.00;;;3.80;99.90;;;;;;5119560;27;20199;-56
2022/01/15 04:55:30;;;;;;;33.73;19.20;;;3.80;99.90;;;;;;5121182;27;20223;-55
2022/01/15 04:57:58;;;;;;;32.70;17.87;;;3.80;99.90;;;;;;5111127;28;20623;-54
2022/01/15 05:00:26;;;;;;;33.83;17.63;;;3.80;99.90;;;;;;5111883;28;20276;-55
2022/01/15 05:02:54;;;;;;;31.33;17.77;;;3.80;99.90;;;;;;5111997;28;20303;-56
2022/01/15 05:05:22;;;;;;;32.37;19.27;;;3.80;99.90;;;;;;5111639;28;20235;-55
2022/01/15 05:07:52;;;;;;;34.50;17.07;;;3.80;99.90;;;;;;5115473;27;20204;-55
2022/01/15 05:10:25;;;;;;;34.90;17.93;;;3.80;99.90;;;;;;5120388;27;20219;-56
2022/01/15 05:12:56;;;;;;;28.30;16.70;;;3.80;99.90;;;;;;5124725;27;20703;-57
2022/01/15 05:15:24;;;;;;;32.57;17.70;;;3.80;99.90;;;;;;5125661;27;20250;-56
2022/01/15 05:17:52;;;;;;;28.73;17.03;;;3.80;99.90;;;;;;5125150;27;20213;-56
2022/01/15 05:20:22;;;;;;;29.97;17.10;;;3.70;99.90;;;;;;5131292;27;20254;-56
2022/01/15 05:22:50;;;;;;;34.90;18.97;;;3.80;99.90;;;;;;5128669;27;20212;-56
2022/01/15 05:25:19;;;;;;;36.80;17.47;;;3.70;99.90;;;;;;5117912;27;20211;-56
2022/01/15 05:27:51;;;;;;;35.97;18.27;;;3.70;99.90;;;;;;5120128;27;20666;-56
2022/01/15 05:30:19;;;;;;;35.10;18.37;;;3.70;99.90;;;;;;5127867;27;20219;-55
2022/01/15 05:32:47;;;;;;;46.17;20.73;;;3.80;99.90;;;;;;5125798;27;20265;-55
2022/01/15 05:35:15;;;;;;;37.60;18.40;;;3.80;99.90;;;;;;5127430;27;20719;-55
2022/01/15 05:37:43;;;;;;;35.70;18.53;;;3.80;99.90;;;;;;5120502;28;20233;-56
2022/01/15 05:40:13;;;;;;;41.40;19.93;;;3.80;99.90;;;;;;5131792;28;20778;-55
2022/01/15 05:42:41;;;;;;;54.43;21.83;;;3.90;99.90;;;;;;5125058;28;20242;-56
2022/01/15 05:45:12;;;;;;;47.67;20.13;;;3.80;99.90;;;;;;5111162;28;20201;-56
2022/01/15 05:47:40;;;;;;;54.73;22.53;;;3.70;99.90;;;;;;5116854;27;20207;-55
2022/01/15 05:50:10;;;;;;;83.47;23.40;;;3.60;99.90;;;;;;5135460;27;20258;-54
2022/01/15 05:52:39;;;;;;;48.13;20.33;;;3.70;99.90;;;;;;5135894;27;20202;-56
2022/01/15 05:55:08;;;;;;;34.10;18.10;;;3.70;99.90;;;;;;5127736;27;20261;-55
2022/01/15 05:57:37;;;;;;;96.70;23.67;;;3.80;99.90;;;;;;5115209;28;20266;-55
2022/01/15 06:00:07;;;;;;;53.70;20.30;;;3.80;99.90;;;;;;5109390;28;20251;-55
2022/01/15 06:02:36;;;;;;;58.40;19.87;;;3.80;99.90;;;;;;5105956;28;20469;-56
2022/01/15 06:05:06;;;;;;;77.13;21.33;;;3.80;99.90;;;;;;5106412;28;20241;-55
2022/01/15 06:07:34;;;;;;;41.03;19.63;;;3.80;99.90;;;;;;5131533;27;20200;-55
2022/01/15 06:10:03;;;;;;;70.33;20.10;;;3.80;99.90;;;;;;5115205;27;20219;-55
2022/01/15 06:12:32;;;;;;;37.40;19.07;;;3.80;99.90;;;;;;5107924;28;20215;-55
2022/01/15 06:15:01;;;;;;;61.30;19.23;;;3.90;99.90;;;;;;5112366;28;20273;-54
2022/01/15 06:17:29;;;;;;;44.57;20.17;;;3.90;99.90;;;;;;5115306;28;20268;-55
2022/01/15 06:19:58;;;;;;;39.43;18.73;;;3.90;99.90;;;;;;5128816;27;20792;-54
2022/01/15 06:22:26;;;;;;;48.30;18.60;;;3.80;99.90;;;;;;5135034;27;20245;-55
2022/01/15 06:24:54;;;;;;;48.17;19.60;;;3.90;99.90;;;;;;5130763;27;20211;-54
2022/01/15 06:27:27;;;;;;;54.00;19.00;;;3.90;99.90;;;;;;5114933;28;20604;-55
2022/01/15 06:29:56;;;;;;;43.10;20.23;;;3.90;99.90;;;;;;5114414;28;20279;-55
2022/01/15 06:32:24;;;;;;;45.13;19.60;;;3.90;99.90;;;;;;5115172;27;20201;-54
2022/01/15 06:34:52;;;;;;;45.27;19.47;;;3.90;99.90;;;;;;5132714;27;20283;-56
2022/01/15 06:37:22;;;;;;;41.73;19.37;;;3.90;99.90;;;;;;5113620;28;20748;-55
2022/01/15 06:39:50;;;;;;;52.37;19.97;;;3.90;99.90;;;;;;5114253;28;20225;-55
2022/01/15 06:42:18;;;;;;;40.27;20.27;;;3.90;99.90;;;;;;5116761;27;20581;-56
2022/01/15 06:44:46;;;;;;;37.77;18.93;;;3.90;99.90;;;;;;5113939;28;20691;-55
2022/01/15 06:47:14;;;;;;;33.93;17.90;;;3.90;99.90;;;;;;5121881;27;20286;-55
2022/01/15 06:49:42;;;;;;;47.53;20.07;;;3.90;99.90;;;;;;5130632;27;20224;-54
2022/01/15 06:52:10;;;;;;;36.60;19.03;;;3.80;99.90;;;;;;5128049;27;20198;-55
2022/01/15 06:54:40;;;;;;;38.57;19.70;;;3.80;99.90;;;;;;5121976;27;20253;-55
2022/01/15 06:57:09;;;;;;;32.73;18.47;;;3.90;99.90;;;;;;5122571;27;20210;-56
2022/01/15 06:59:37;;;;;;;43.47;19.90;;;3.90;99.90;;;;;;5124724;27;20230;-55
2022/01/15 07:02:07;;;;;;;36.80;18.60;;;3.90;99.90;;;;;;5128327;27;20593;-55
2022/01/15 07:04:35;;;;;;;36.13;19.40;;;3.90;99.90;;;;;;5126443;27;20736;-56
2022/01/15 07:07:04;;;;;;;35.37;18.90;;;4.00;99.90;;;;;;5130953;27;20202;-56
2022/01/15 07:09:32;;;;;;;39.43;19.70;;;4.00;99.90;;;;;;5127376;27;20224;-55
2022/01/15 07:12:03;;;;;;;53.83;21.70;;;4.00;99.90;;;;;;5135033;27;20286;-55
2022/01/15 07:14:31;;;;;;;32.33;18.37;;;3.90;99.90;;;;;;5119744;27;20201;-56
2022/01/15 07:16:59;;;;;;;34.73;18.87;;;3.90;99.90;;;;;;5113683;28;20230;-56
2022/01/15 07:19:27;;;;;;;40.23;19.70;;;3.90;99.90;;;;;;5129515;27;20277;-56
2022/01/15 07:21:55;;;;;;;30.73;18.50;;;4.00;99.90;;;;;;5133586;27;20198;-55
2022/01/15 07:24:23;;;;;;;33.27;17.83;;;4.00;99.90;;;;;;5134052;27;20245;-56
2022/01/15 07:26:52;;;;;;;42.03;19.77;;;4.00;99.90;;;;;;5117805;27;20205;-55
2022/01/15 07:29:23;;;;;;;76.27;24.03;;;4.00;99.90;;;;;;5112761;28;20219;-55
2022/01/15 07:31:53;;;;;;;35.67;19.50;;;3.90;99.90;;;;;;5112159;27;20239;-55
2022/01/15 07:34:21;;;;;;;37.47;17.20;;;3.90;99.90;;;;;;5113508;28;20240;-55
2022/01/15 07:36:53;;;;;;;88.10;23.93;;;4.00;99.90;;;;;;5128900;27;20221;-55
2022/01/15 07:39:21;;;;;;;115.07;24.77;;;3.90;99.90;;;;;;5132162;27;20276;-55
2022/01/15 07:41:50;;;;;;;39.63;19.20;;;3.90;99.90;;;;;;5128984;27;20192;-55
2022/01/15 07:44:18;;;;;;;32.43;18.37;;;3.90;99.90;;;;;;5127491;27;20264;-55
2022/01/15 07:46:47;;;;;;;53.30;21.33;;;3.90;99.90;;;;;;5111935;28;20196;-55
2022/01/15 07:49:15;;;;;;;35.83;19.83;;;3.90;99.90;;;;;;5126430;27;20213;-55
2022/01/15 07:51:43;;;;;;;60.33;25.13;;;3.90;99.90;;;;;;5111136;28;20254;-55
2022/01/15 07:54:11;;;;;;;69.13;24.50;;;3.90;99.90;;;;;;5124449;27;20208;-56
2022/01/15 07:56:40;;;;;;;32.23;17.77;;;3.90;99.90;;;;;;5125655;27;20223;-56
2022/01/15 07:59:08;;;;;;;28.20;13.93;;;4.00;99.90;;;;;;5126241;27;20216;-55
2022/01/15 08:01:36;;;;;;;27.80;13.73;;;3.90;99.90;;;;;;5112830;28;20664;-56
2022/01/15 08:04:05;;;;;;;30.87;14.60;;;3.90;99.90;;;;;;5112336;28;20726;-56
2022/01/15 08:06:33;;;;;;;48.60;18.87;;;3.90;99.90;;;;;;5118389;27;20231;-55
2022/01/15 08:09:02;;;;;;;37.43;17.30;;;3.80;99.90;;;;;;5124156;27;20219;-55
2022/01/15 08:11:30;;;;;;;33.30;15.97;;;3.80;99.90;;;;;;5108889;27;20211;-55
2022/01/15 08:13:58;;;;;;;52.23;18.33;;;3.80;99.90;;;;;;5099465;27;20208;-55
2022/01/15 08:16:26;;;;;;;100.03;20.47;;;3.80;99.90;;;;;;5112038;27;20255;-56
2022/01/15 08:18:54;;;;;;;76.20;21.60;;;3.80;99.90;;;;;;5108520;28;20231;-55
2022/01/15 08:21:24;;;;;;;28.23;14.63;;;3.90;99.90;;;;;;5104637;28;20330;-55
2022/01/15 08:23:52;;;;;;;21.90;11.93;;;3.90;99.90;;;;;;5109914;27;20215;-56
2022/01/15 08:26:20;;;;;;;26.37;13.40;;;3.90;99.90;;;;;;5108656;28;20196;-56
2022/01/15 08:28:48;;;;;;;35.27;16.20;;;3.90;99.90;;;;;;5111653;28;20613;-54
2022/01/15 08:31:16;;;;;;;19.10;11.53;;;3.90;99.90;;;;;;5116595;27;20192;-55
2022/01/15 08:33:44;;;;;;;28.17;13.07;;;3.90;99.90;;;;;;5112103;28;20256;-55
2022/01/15 08:36:13;;;;;;;14.93;9.03;;;3.80;99.90;;;;;;5112051;28;20223;-56
2022/01/15 08:38:42;;;;;;;14.93;10.20;;;3.90;99.90;;;;;;5112399;28;20228;-55
2022/01/15 08:41:24;;;;;;;18.43;11.63;;;3.90;99.90;;;;;;5112086;28;20193;-55
2022/01/15 08:43:52;;;;;;;19.20;10.53;;;4.00;99.90;;;;;;5111887;28;20200;-55
2022/01/15 08:46:21;;;;;;;24.03;12.10;;;4.00;99.90;;;;;;5131612;27;20253;-56
2022/01/15 08:48:50;;;;;;;18.93;10.30;;;3.90;99.90;;;;;;5117467;27;20309;-55
2022/01/15 08:51:18;;;;;;;19.37;11.47;;;4.00;99.90;;;;;;5120942;27;20207;-56
2022/01/15 08:53:48;;;;;;;28.07;12.43;;;3.90;99.90;;;;;;5118239;27;20207;-55
2022/01/15 08:56:17;;;;;;;16.90;9.77;;;4.00;99.90;;;;;;5111573;28;20256;-55
2022/01/15 08:58:45;;;;;;;18.27;9.60;;;4.00;99.90;;;;;;5113286;27;20229;-56
2022/01/15 09:01:15;;;;;;;16.33;10.10;;;4.00;99.90;;;;;;5104549;28;20205;-56
2022/01/15 09:03:43;;;;;;;16.43;9.57;;;4.00;99.90;;;;;;5112098;28;20259;-56
2022/01/15 09:06:12;;;;;;;14.47;8.87;;;4.00;99.90;;;;;;5111830;28;20680;-55
2022/01/15 09:08:42;;;;;;;16.40;10.07;;;4.00;99.90;;;;;;5106164;27;20278;-56
2022/01/15 09:11:11;;;;;;;21.57;11.23;;;4.10;99.90;;;;;;5130656;27;20249;-56
2022/01/15 09:13:40;;;;;;;19.50;10.33;;;4.10;99.90;;;;;;5131634;27;20666;-55
2022/01/15 09:16:08;;;;;;;19.17;10.87;;;4.00;99.90;;;;;;5132174;27;20267;-54
2022/01/15 09:18:37;;;;;;;18.90;10.30;;;4.00;99.90;;;;;;5121312;27;20240;-56
2022/01/15 09:21:06;;;;;;;20.23;10.57;;;4.00;99.90;;;;;;5113382;27;20232;-55
2022/01/15 09:23:34;;;;;;;14.83;9.40;;;4.10;99.90;;;;;;5122743;27;20632;-56
2022/01/15 09:26:07;;;;;;;19.07;10.90;;;4.10;99.90;;;;;;5122191;27;20572;-55
2022/01/15 09:31:23;;;;;;;13.90;8.90;;;4.10;99.90;;;;;;5123409;27;20218;-56
2022/01/15 09:33:51;;;;;;;20.13;9.70;;;4.10;99.90;;;;;;5125041;27;20203;-55
2022/01/15 09:36:19;;;;;;;15.47;9.37;;;4.10;99.90;;;;;;5122231;27;20247;-55
2022/01/15 09:38:48;;;;;;;19.07;10.07;;;4.10;99.90;;;;;;5117976;28;20587;-56
2022/01/15 09:41:16;;;;;;;15.40;9.03;;;4.00;99.90;;;;;;5131527;28;20200;-56
2022/01/15 09:43:46;;;;;;;16.27;9.20;;;4.00;99.90;;;;;;5131799;28;20621;-57
2022/01/15 09:46:16;;;;;;;24.90;11.87;;;4.00;99.90;;;;;;5132058;28;20206;-57
2022/01/15 09:48:45;;;;;;;26.07;11.77;;;4.00;99.90;;;;;;5117786;28;20243;-55
2022/01/15 09:51:14;;;;;;;21.77;10.80;;;4.00;99.90;;;;;;5111091;28;20239;-55
2022/01/15 09:53:42;;;;;;;17.20;10.70;;;4.00;99.90;;;;;;5110204;28;20265;-58
2022/01/15 09:56:10;;;;;;;17.73;9.73;;;4.00;99.90;;;;;;5128848;28;20199;-56
2022/01/15 09:58:38;;;;;;;16.43;10.40;;;4.00;99.90;;;;;;5109532;28;20365;-54
2022/01/15 10:01:08;;;;;;;15.47;10.20;;;4.10;99.90;;;;;;5090855;28;20249;-56
2022/01/15 10:03:36;;;;;;;13.67;9.00;;;4.10;99.90;;;;;;5090866;28;20669;-55
2022/01/15 10:06:05;;;;;;;13.43;8.83;;;4.10;99.90;;;;;;5090794;28;20214;-56
2022/01/15 10:08:33;;;;;;;14.77;10.80;;;4.20;99.90;;;;;;5092687;28;20209;-56
2022/01/15 10:11:07;;;;;;;22.17;16.77;;;4.20;99.90;;;;;;5125919;28;20205;-57
2022/01/15 10:13:44;;;;;;;16.53;11.03;;;4.30;99.90;;;;;;5110072;28;20664;-57
2022/01/15 10:16:17;;;;;;;25.60;20.77;;;4.30;99.90;;;;;;5107987;28;20257;-56
2022/01/15 10:18:47;;;;;;;17.13;12.50;;;4.20;99.90;;;;;;5092805;28;20225;-57
2022/01/15 10:21:17;;;;;;;14.20;10.77;;;4.30;99.90;;;;;;5110716;28;20666;-57
2022/01/15 10:23:47;;;;;;;15.03;9.20;;;4.30;99.90;;;;;;5110012;28;20225;-54
2022/01/15 10:26:17;;;;;;;24.87;11.60;;;4.30;99.90;;;;;;5098947;28;20255;-56
2022/01/15 10:28:56;;;;;;;25.33;12.87;;;4.20;99.90;;;;;;5089727;28;20645;-55
2022/01/15 10:31:28;;;;;;;21.00;11.70;;;4.20;99.90;;;;;;5101263;28;20228;-56
2022/01/15 10:34:00;;;;;;;33.90;11.90;;;4.30;99.90;;;;;;5108903;28;20253;-56
2022/01/15 10:36:31;;;;;;;46.07;14.70;;;4.40;99.90;;;;;;5111868;28;20201;-56
2022/01/15 10:39:15;;;;;;;32.07;12.57;;;4.30;99.90;;;;;;5113760;28;20233;-55
2022/01/15 10:41:43;;;;;;;74.30;16.80;;;4.30;99.90;;;;;;5114370;28;20211;-56
2022/01/15 10:44:33;;;;;;;44.30;15.53;;;4.20;99.90;;;;;;5116925;27;20606;-55
2022/01/15 10:47:06;;;;;;;41.40;14.23;;;4.20;99.90;;;;;;5113901;28;20208;-55
2022/01/15 10:49:37;;;;;;;29.40;12.57;;;4.20;99.90;;;;;;5109342;27;20227;-55
2022/01/15 10:52:13;;;;;;;20.47;10.63;;;4.30;99.90;;;;;;5114152;28;20208;-55
2022/01/15 10:54:54;;;;;;;18.43;10.07;;;4.20;99.90;;;;;;5093603;28;20221;-55
2022/01/15 10:57:24;;;;;;;28.07;16.83;;;4.30;99.90;;;;;;5097119;28;20700;-55
2022/01/15 11:00:17;;;;;;;70.53;52.20;;;4.30;99.90;;;;;;5098991;28;20230;-56
2022/01/15 11:02:48;;;;;;;38.90;27.20;;;4.40;99.90;;;;;;5093706;28;20266;-55
2022/01/15 11:05:35;;;;;;;19.60;11.87;;;4.50;99.90;;;;;;5113748;28;20296;-56
2022/01/15 11:08:20;;;;;;;12.20;8.37;;;4.40;99.90;;;;;;5113740;28;20261;-56
2022/01/15 11:10:51;;;;;;;10.57;8.77;;;4.40;99.90;;;;;;5112268;28;20240;-56
2022/01/15 11:13:21;;;;;;;14.93;9.30;;;4.50;99.90;;;;;;5101562;28;20242;-55
2022/01/15 11:15:54;;;;;;;16.30;9.80;;;4.50;99.90;;;;;;5101225;28;20205;-56
2022/01/15 11:18:25;;;;;;;18.23;9.50;;;4.60;99.90;;;;;;5113281;28;20227;-55
2022/01/15 11:21:00;;;;;;;22.53;11.00;;;4.60;99.90;;;;;;5115240;27;20214;-56
2022/01/15 11:23:29;;;;;;;17.67;10.43;;;4.50;99.90;;;;;;5132686;27;20256;-55
2022/01/15 11:25:59;;;;;;;11.53;8.77;;;4.40;99.90;;;;;;5130862;27;20254;-55
2022/01/15 11:28:29;;;;;;;16.23;9.73;;;4.50;99.90;;;;;;5092610;28;20202;-55
2022/01/15 11:30:59;;;;;;;47.37;16.87;;;4.60;99.90;;;;;;5113765;27;20250;-56
2022/01/15 11:33:31;;;;;;;34.17;10.70;;;4.60;99.90;;;;;;5125000;27;20264;-55
2022/01/15 11:36:01;;;;;;;13.57;9.50;;;4.50;99.90;;;;;;5125311;27;20196;-56
2022/01/15 11:38:43;;;;;;;22.83;10.47;;;4.40;99.90;;;;;;5128080;27;20261;-55
2022/01/15 11:41:40;;;;;;;21.07;10.20;;;4.60;99.90;;;;;;5123501;27;20617;-54
2022/01/15 11:44:11;;;;;;;11.53;8.93;;;4.60;99.90;;;;;;5047349;28;20202;-56
2022/01/15 11:46:48;;;;;;;47.43;11.47;;;4.60;99.90;;;;;;5112182;28;20235;-56
2022/01/15 11:49:35;;;;;;;35.57;11.30;;;4.60;99.90;;;;;;5106077;28;20220;-55
2022/01/15 11:52:43;;;;;;;18.23;10.50;;;4.60;99.90;;;;;;5114185;28;20227;-55
2022/01/15 11:55:15;;;;;;;39.73;11.60;;;4.60;99.90;;;;;;5111406;28;20248;-55
2022/01/15 11:57:50;;;;;;;34.70;12.17;;;4.60;99.90;;;;;;5117032;27;20358;-55
2022/01/15 12:00:21;;;;;;;73.90;16.23;;;4.60;99.90;;;;;;5129952;27;20242;-55
2022/01/15 12:03:07;;;;;;;33.53;11.87;;;4.50;99.90;;;;;;5131270;27;20255;-54
2022/01/15 12:05:38;;;;;;;28.20;12.20;;;4.50;99.90;;;;;;5132993;27;20240;-54
2022/01/15 12:08:30;;;;;;;37.63;13.30;;;4.60;99.90;;;;;;5126299;27;20216;-55
2022/01/15 12:11:00;;;;;;;51.50;15.07;;;4.60;99.90;;;;;;5127247;27;20260;-56
2022/01/15 12:13:34;;;;;;;89.07;16.60;;;4.60;99.90;;;;;;5128547;27;20263;-55
2022/01/15 12:16:24;;;;;;;27.10;13.00;;;4.50;99.90;;;;;;5129595;27;20195;-55
2022/01/15 12:18:53;;;;;;;67.97;15.57;;;4.50;99.90;;;;;;5091699;28;20700;-54
2022/01/15 12:21:46;;;;;;;90.93;18.40;;;4.60;99.90;;;;;;5104982;27;20233;-54
2022/01/15 12:24:44;;;;;;;52.27;13.93;;;4.60;99.90;;;;;;5133284;27;20703;-55
2022/01/15 12:27:15;;;;;;;71.93;14.30;;;4.60;99.90;;;;;;5133287;27;20213;-56
2022/01/15 12:29:44;;;;;;;56.83;13.83;;;4.50;99.90;;;;;;5123971;27;20211;-55
2022/01/15 12:32:26;;;;;;;45.10;14.07;;;4.50;99.90;;;;;;5103559;28;20325;-55
2022/01/15 12:34:55;;;;;;;72.57;15.57;;;4.60;99.90;;;;;;5112463;28;20263;-55
2022/01/15 12:37:26;;;;;;;120.57;19.13;;;4.70;99.90;;;;;;5111790;28;20201;-54
2022/01/15 12:39:55;;;;;;;83.50;16.30;;;4.60;99.90;;;;;;5111947;28;20803;-55
2022/01/15 12:42:31;;;;;;;37.63;14.77;;;4.60;99.90;;;;;;5110133;27;20228;-55
2022/01/15 12:44:59;;;;;;;51.67;14.60;;;4.50;99.90;;;;;;5111740;27;20215;-56
2022/01/15 12:47:42;;;;;;;33.53;14.60;;;4.60;99.90;;;;;;5114098;27;20251;-55
2022/01/15 12:50:11;;;;;;;58.00;16.10;;;4.70;99.90;;;;;;5132027;27;20268;-55
2022/01/15 12:52:41;;;;;;;73.17;17.83;;;4.60;99.90;;;;;;5127041;27;20208;-55
2022/01/15 12:55:10;;;;;;;37.93;13.93;;;4.50;99.90;;;;;;5090596;28;20299;-57
2022/01/15 12:57:40;;;;;;;44.47;14.87;;;4.50;99.90;;;;;;5109222;28;20256;-56
2022/01/15 13:00:12;;;;;;;84.70;17.33;;;4.50;99.90;;;;;;5094553;28;20220;-54
2022/01/15 13:02:40;;;;;;;54.43;16.37;;;4.60;99.90;;;;;;5122270;27;20607;-55
2022/01/15 13:05:12;;;;;;;42.70;14.80;;;4.50;99.90;;;;;;5098514;27;20208;-55
2022/01/15 13:07:53;;;;;;;58.23;15.20;;;4.50;99.90;;;;;;5100148;28;20196;-55
2022/01/15 13:10:48;;;;;;;106.93;17.33;;;4.50;99.90;;;;;;5121494;27;20247;-55